createdAt,value
2023-03-12T00:00:01.485Z,4.67
2023-03-12T00:02:31.321Z,4.07
2023-03-12T00:05:01.095Z,4.03
2023-03-12T00:07:31.166Z,3.33
2023-03-12T00:10:00.961Z,4.70
2023-03-12T00:12:30.734Z,3.80
2023-03-12T00:15:04.678Z,4.23
2023-03-12T00:17:34.523Z,4.50
2023-03-12T00:20:04.922Z,3.13
2023-03-12T00:22:34.705Z,4.33
2023-03-12T00:25:06.347Z,3.70
2023-03-12T00:27:36.368Z,4.47
2023-03-12T00:30:13.551Z,4.93
2023-03-12T00:32:43.425Z,4.53
2023-03-12T00:35:13.534Z,5.43
2023-03-12T00:37:43.335Z,4.93
2023-03-12T00:40:14.885Z,4.40
2023-03-12T00:42:44.644Z,3.93
2023-03-12T00:45:17.387Z,5.43
2023-03-12T00:47:47.151Z,5.43
2023-03-12T00:50:16.991Z,5.47
2023-03-12T00:52:47.156Z,5.03
2023-03-12T00:55:16.952Z,4.93
2023-03-12T00:57:46.810Z,4.17
2023-03-12T01:00:21.291Z,5.30
2023-03-12T01:02:51.153Z,4.27
2023-03-12T01:05:21.095Z,4.47
2023-03-12T01:07:50.889Z,5.67
2023-03-12T01:10:29.403Z,3.97
2023-03-12T01:12:59.272Z,7.13
2023-03-12T01:15:32.735Z,3.97
2023-03-12T01:18:02.552Z,4.73
2023-03-12T01:20:32.390Z,6.43
2023-03-12T01:23:02.166Z,4.10
2023-03-12T01:25:34.157Z,4.80
2023-03-12T01:28:03.979Z,4.50
2023-03-12T01:30:37.245Z,4.53
2023-03-12T01:33:09.499Z,4.00
2023-03-12T01:35:40.698Z,4.90
2023-03-12T01:38:12.016Z,6.30
2023-03-12T01:40:44.004Z,4.97
2023-03-12T01:43:27.420Z,4.17
2023-03-12T01:46:08.684Z,3.17
2023-03-12T01:48:42.806Z,3.53
2023-03-12T01:51:15.301Z,5.47
2023-03-12T01:53:48.050Z,4.90
2023-03-12T01:56:19.421Z,5.73
2023-03-12T01:58:53.699Z,6.87
2023-03-12T02:01:27.027Z,4.07
2023-03-12T02:04:02.137Z,3.50
2023-03-12T02:06:40.166Z,3.97
2023-03-12T02:09:12.716Z,5.17
2023-03-12T02:11:42.490Z,4.47
2023-03-12T02:14:12.316Z,4.97
2023-03-12T02:16:45.569Z,4.47
2023-03-12T02:19:26.047Z,4.63
2023-03-12T02:21:56.283Z,5.87
2023-03-12T02:24:42.445Z,3.37
2023-03-12T02:27:15.598Z,4.93
2023-03-12T02:29:47.679Z,4.60
2023-03-12T02:32:24.158Z,4.00
2023-03-12T02:34:53.983Z,3.80
2023-03-12T02:37:23.763Z,5.00
2023-03-12T02:40:00.321Z,3.37
2023-03-12T02:42:32.949Z,3.70
2023-03-12T02:45:04.704Z,4.50
2023-03-12T02:47:34.512Z,4.47
2023-03-12T02:50:04.339Z,5.30
2023-03-12T02:52:36.361Z,3.60
2023-03-12T02:55:07.110Z,4.33
2023-03-12T02:57:40.247Z,4.90
2023-03-12T03:00:12.818Z,4.40
2023-03-12T03:02:43.276Z,5.83
2023-03-12T03:05:14.521Z,3.93
2023-03-12T03:07:44.411Z,4.27
2023-03-12T03:10:15.864Z,7.80
2023-03-12T03:12:48.280Z,4.17
2023-03-12T03:15:18.071Z,6.20
2023-03-12T03:17:47.841Z,3.27
2023-03-12T03:20:17.864Z,3.87
2023-03-12T03:22:51.866Z,3.53
2023-03-12T03:25:51.298Z,3.83
2023-03-12T03:32:48.044Z,3.37
2023-03-12T03:42:07.433Z,3.17
2023-03-12T03:44:45.379Z,4.93
2023-03-12T03:47:26.023Z,4.53
2023-03-12T03:49:56.113Z,5.47
2023-03-12T03:52:25.916Z,4.63
2023-03-12T03:54:57.172Z,4.77
2023-03-12T03:57:27.006Z,2.90
2023-03-12T04:00:03.502Z,3.47
2023-03-12T04:02:33.656Z,4.07
2023-03-12T04:05:03.827Z,3.20
2023-03-12T04:07:34.109Z,4.83
2023-03-12T04:10:04.167Z,3.13
2023-03-12T04:12:33.948Z,3.27
2023-03-12T04:15:10.805Z,3.77
2023-03-12T04:17:40.612Z,4.13
2023-03-12T04:20:12.546Z,3.93
2023-03-12T04:22:42.392Z,4.93
2023-03-12T04:25:12.587Z,5.50
2023-03-12T04:27:42.396Z,4.77
2023-03-12T04:30:16.382Z,4.07
2023-03-12T04:32:46.260Z,3.87
2023-03-12T04:35:16.077Z,5.70
2023-03-12T04:37:47.422Z,5.07
2023-03-12T04:40:19.385Z,5.60
2023-03-12T04:42:49.231Z,3.70
2023-03-12T04:45:21.792Z,4.53
2023-03-12T04:47:51.629Z,4.73
2023-03-12T04:50:21.750Z,5.37
2023-03-12T04:52:51.583Z,4.30
2023-03-12T04:55:21.567Z,5.43
2023-03-12T04:57:51.487Z,4.23
2023-03-12T05:00:27.504Z,6.03
2023-03-12T05:02:57.339Z,6.07
2023-03-12T05:05:27.472Z,8.43
2023-03-12T05:07:57.290Z,5.90
2023-03-12T05:10:29.350Z,4.30
2023-03-12T05:12:59.226Z,6.07
2023-03-12T05:15:31.660Z,5.37
2023-03-12T05:18:01.464Z,5.80
2023-03-12T05:20:31.324Z,7.20
2023-03-12T05:23:01.113Z,6.57
2023-03-12T05:25:30.942Z,5.60
2023-03-12T05:28:00.699Z,4.83
2023-03-12T05:30:33.088Z,4.40
2023-03-12T05:33:02.887Z,4.57
2023-03-12T05:35:32.697Z,4.63
2023-03-12T05:38:04.278Z,4.13
2023-03-12T05:40:34.265Z,4.53
2023-03-12T05:43:04.106Z,3.80
2023-03-12T05:45:37.077Z,4.77
2023-03-12T05:48:07.080Z,5.07
2023-03-12T05:50:39.640Z,6.37
2023-03-12T05:53:09.543Z,5.87
2023-03-12T05:55:40.314Z,4.90
2023-03-12T05:58:11.236Z,4.53
2023-03-12T06:00:45.250Z,6.00
2023-03-12T06:03:15.496Z,5.63
2023-03-12T06:05:48.223Z,4.87
2023-03-12T06:08:18.437Z,5.60
2023-03-12T06:10:51.359Z,3.87
2023-03-12T06:13:21.202Z,5.47
2023-03-12T06:15:53.713Z,3.67
2023-03-12T06:18:23.612Z,6.57
2023-03-12T06:20:53.524Z,5.47
2023-03-12T06:23:23.452Z,4.73
2023-03-12T06:25:53.222Z,4.53
2023-03-12T06:28:23.148Z,5.73
2023-03-12T06:30:58.430Z,4.07
2023-03-12T06:33:34.212Z,5.73
2023-03-12T06:36:06.186Z,5.30
2023-03-12T06:38:36.612Z,6.10
2023-03-12T06:41:09.464Z,7.70
2023-03-12T06:43:40.576Z,4.23
2023-03-12T06:46:17.075Z,5.60
2023-03-12T06:48:47.101Z,4.57
2023-03-12T06:51:18.909Z,6.87
2023-03-12T06:53:49.394Z,4.57
2023-03-12T06:56:21.383Z,5.87
2023-03-12T06:58:51.189Z,4.13
2023-03-12T07:01:23.814Z,4.70
2023-03-12T07:03:53.680Z,5.53
2023-03-12T07:06:27.929Z,5.33
2023-03-12T07:08:57.856Z,6.37
2023-03-12T07:11:27.667Z,5.83
2023-03-12T07:13:57.503Z,5.43
2023-03-12T07:16:31.556Z,4.67
2023-03-12T07:19:01.627Z,6.53
2023-03-12T07:21:32.236Z,5.30
2023-03-12T07:24:06.932Z,5.63
2023-03-12T07:26:37.686Z,6.90
2023-03-12T07:29:07.912Z,6.13
2023-03-12T07:31:40.574Z,5.83
2023-03-12T07:34:10.467Z,7.03
2023-03-12T07:36:40.429Z,6.60
2023-03-12T07:39:13.341Z,12.33
2023-03-12T07:41:43.138Z,6.87
2023-03-12T07:44:12.990Z,9.23
2023-03-12T07:46:45.939Z,7.80
2023-03-12T07:49:15.736Z,8.40
2023-03-12T07:51:45.574Z,7.40
2023-03-12T07:54:15.764Z,7.40
2023-03-12T07:56:46.105Z,6.77
2023-03-12T07:59:16.149Z,9.23
2023-03-12T08:01:48.846Z,7.23
2023-03-12T08:04:18.815Z,7.37
2023-03-12T08:06:48.707Z,9.10
2023-03-12T08:09:18.612Z,9.30
2023-03-12T08:11:48.443Z,10.33
2023-03-12T08:14:18.284Z,9.87
2023-03-12T08:16:50.666Z,8.47
2023-03-12T08:19:20.431Z,9.27
2023-03-12T08:21:50.233Z,10.77
2023-03-12T08:24:19.979Z,9.10
2023-03-12T08:26:50.375Z,11.10
2023-03-12T08:29:23.647Z,8.53
2023-03-12T08:32:05.760Z,8.10
2023-03-12T08:34:36.321Z,8.57
2023-03-12T08:37:06.663Z,10.70
2023-03-12T08:39:36.897Z,9.57
2023-03-12T08:42:07.930Z,7.90
2023-03-12T08:44:37.813Z,10.23
2023-03-12T08:47:10.328Z,10.23
2023-03-12T08:49:40.359Z,11.83
2023-03-12T08:52:10.345Z,8.73
2023-03-12T08:54:40.284Z,11.57
2023-03-12T08:57:10.761Z,9.37
2023-03-12T08:59:40.712Z,11.07
2023-03-12T09:02:14.200Z,9.77
2023-03-12T09:04:44.013Z,8.90
2023-03-12T09:07:20.053Z,9.33
2023-03-12T09:09:49.827Z,9.20
2023-03-12T09:12:19.598Z,8.43
2023-03-12T09:15:03.117Z,7.93
2023-03-12T09:17:36.406Z,10.13
2023-03-12T09:20:11.837Z,8.87
2023-03-12T09:22:41.658Z,8.50
2023-03-12T09:25:13.470Z,8.13
2023-03-12T09:27:44.882Z,8.60
2023-03-12T09:30:20.226Z,8.47
2023-03-12T09:32:52.774Z,7.57
2023-03-12T09:35:22.757Z,7.53
2023-03-12T09:37:52.912Z,7.97
2023-03-12T09:40:25.476Z,7.90
2023-03-12T09:42:58.892Z,9.90
2023-03-12T09:45:30.549Z,9.93
2023-03-12T09:48:05.878Z,10.90
2023-03-12T09:50:40.368Z,8.03
2023-03-12T09:53:21.772Z,7.30
2023-03-12T09:55:55.275Z,6.73
2023-03-12T09:58:30.291Z,7.10
2023-03-12T10:01:10.344Z,7.17
2023-03-12T10:04:01.574Z,6.90
2023-03-12T10:06:36.497Z,6.67
2023-03-12T10:09:20.072Z,7.90
2023-03-12T10:11:58.172Z,6.50
2023-03-12T10:14:41.332Z,7.53
2023-03-12T10:17:42.337Z,9.20
2023-03-12T10:20:31.618Z,9.43
2023-03-12T10:23:07.715Z,10.80
2023-03-12T10:25:46.399Z,7.73
2023-03-12T10:28:20.342Z,8.90
2023-03-12T10:30:54.841Z,6.50
2023-03-12T10:33:28.417Z,6.23
2023-03-12T10:36:02.429Z,7.33
2023-03-12T10:38:33.290Z,6.10
2023-03-12T10:41:03.384Z,5.73
2023-03-12T10:43:34.120Z,7.57
2023-03-12T10:46:18.743Z,7.03
2023-03-12T10:48:50.194Z,6.80
2023-03-12T10:51:22.623Z,10.00
2023-03-12T10:53:52.589Z,7.07
2023-03-12T10:56:23.462Z,7.20
2023-03-12T10:58:55.956Z,6.67
2023-03-12T11:01:27.530Z,6.77
2023-03-12T11:04:12.937Z,11.60
2023-03-12T11:06:45.443Z,8.17
2023-03-12T11:09:21.707Z,6.93
2023-03-12T11:11:54.768Z,7.50
2023-03-12T11:14:26.979Z,8.37
2023-03-12T11:16:58.070Z,8.80
2023-03-12T11:19:33.480Z,8.57
2023-03-12T11:22:11.764Z,7.50
2023-03-12T11:24:58.521Z,6.93
2023-03-12T11:27:39.255Z,8.57
2023-03-12T11:30:14.514Z,7.43
2023-03-12T11:32:48.491Z,7.83
2023-03-12T11:35:20.616Z,9.83
2023-03-12T11:38:03.954Z,9.30
2023-03-12T11:40:48.610Z,10.87
2023-03-12T11:43:43.219Z,8.57
2023-03-12T11:46:30.596Z,8.83
2023-03-12T11:49:16.441Z,9.17
2023-03-12T11:51:55.799Z,9.63
2023-03-12T11:54:51.143Z,7.97
2023-03-12T11:57:30.659Z,10.00
2023-03-12T12:00:13.938Z,8.43
2023-03-12T12:03:17.651Z,9.63
2023-03-12T12:06:03.745Z,8.37
2023-03-12T12:08:54.902Z,9.13
2023-03-12T12:11:38.236Z,8.93
2023-03-12T12:14:18.548Z,8.03
2023-03-12T12:17:04.927Z,8.77
2023-03-12T12:19:50.369Z,9.53
2023-03-12T12:22:38.526Z,10.37
2023-03-12T12:25:33.026Z,11.27
2023-03-12T12:28:28.925Z,10.40
2023-03-12T12:31:26.241Z,11.43
2023-03-12T12:34:15.435Z,10.13
2023-03-12T12:36:50.307Z,11.87
2023-03-12T12:39:27.024Z,13.77
2023-03-12T12:42:01.169Z,12.13
2023-03-12T12:44:38.687Z,11.30
2023-03-12T12:47:13.396Z,12.10
2023-03-12T12:49:48.035Z,10.47
2023-03-12T12:52:20.884Z,11.60
2023-03-12T12:55:01.214Z,10.97
2023-03-12T12:57:39.828Z,10.60
2023-03-12T13:00:27.573Z,12.23
2023-03-12T13:02:59.330Z,11.47
2023-03-12T13:05:31.442Z,13.90
2023-03-12T13:08:01.216Z,11.20
2023-03-12T13:10:57.044Z,15.73
2023-03-12T13:13:28.501Z,9.47
2023-03-12T13:16:24.012Z,12.20
2023-03-12T13:19:00.752Z,12.73
2023-03-12T13:21:40.538Z,12.23
2023-03-12T13:24:22.196Z,16.57
2023-03-12T13:26:57.836Z,14.90
2023-03-12T13:29:44.065Z,19.27
2023-03-12T13:33:03.171Z,19.67
2023-03-12T13:35:36.380Z,20.03
2023-03-12T13:38:14.616Z,19.50
2023-03-12T13:41:06.970Z,15.43
2023-03-12T13:43:51.999Z,15.93
2023-03-12T13:46:32.998Z,16.57
2023-03-12T13:49:09.451Z,24.57
2023-03-12T13:51:51.241Z,17.60
2023-03-12T13:54:22.545Z,19.73
2023-03-12T13:57:00.317Z,20.43
2023-03-12T13:59:32.473Z,23.43
2023-03-12T14:02:10.618Z,23.13
2023-03-12T14:04:45.102Z,19.97
2023-03-12T14:07:50.388Z,22.17
2023-03-12T14:10:38.443Z,26.73
2023-03-12T14:13:19.658Z,24.37
2023-03-12T14:15:58.284Z,28.67
2023-03-12T14:18:33.945Z,24.60
2023-03-12T14:21:11.316Z,32.00
2023-03-12T14:23:43.966Z,22.17
2023-03-12T14:26:24.600Z,20.23
2023-03-12T14:29:03.022Z,19.53
2023-03-12T14:31:34.607Z,23.80
2023-03-12T14:34:09.959Z,17.27
2023-03-12T14:36:47.818Z,22.30
2023-03-12T14:39:28.056Z,18.07
2023-03-12T14:42:01.800Z,23.33
2023-03-12T14:44:32.718Z,23.47
2023-03-12T14:47:04.417Z,21.77
2023-03-12T14:49:34.890Z,20.03
2023-03-12T14:52:08.160Z,25.27
2023-03-12T14:54:39.806Z,28.60
2023-03-12T14:57:15.990Z,24.10
2023-03-12T14:59:58.719Z,24.13
2023-03-12T15:02:29.610Z,21.40
2023-03-12T15:05:03.639Z,26.83
2023-03-12T15:07:39.708Z,28.33
2023-03-12T15:10:20.222Z,20.20
2023-03-12T15:12:50.289Z,22.17
2023-03-12T15:15:36.254Z,24.90
2023-03-12T15:18:09.283Z,20.33
2023-03-12T15:20:39.737Z,23.93
2023-03-12T15:23:15.040Z,21.07
2023-03-12T15:25:45.623Z,24.07
2023-03-12T15:28:32.439Z,23.60
2023-03-12T15:31:13.890Z,21.10
2023-03-12T15:33:44.981Z,20.50
2023-03-12T15:36:37.023Z,28.33
2023-03-12T15:39:30.575Z,27.97
2023-03-12T15:42:04.747Z,22.77
2023-03-12T15:44:46.425Z,27.60
2023-03-12T15:47:19.008Z,24.43
2023-03-12T15:49:56.351Z,27.03
2023-03-12T15:52:32.654Z,22.63
2023-03-12T15:55:22.507Z,30.23
2023-03-12T15:57:53.500Z,33.03
2023-03-12T16:00:36.264Z,33.47
2023-03-12T16:03:08.174Z,30.70
2023-03-12T16:05:42.925Z,21.93
2023-03-12T16:08:18.702Z,27.30
2023-03-12T16:10:56.218Z,23.10
2023-03-12T16:13:31.442Z,23.17
2023-03-12T16:16:02.246Z,29.70
2023-03-12T16:18:32.178Z,31.93
2023-03-12T16:21:03.466Z,25.87
2023-03-12T16:23:33.475Z,27.17
2023-03-12T16:26:07.723Z,24.53
2023-03-12T16:28:38.580Z,34.00
2023-03-12T16:31:15.632Z,30.50
2023-03-12T16:33:46.548Z,33.10
2023-03-12T16:36:19.342Z,24.60
2023-03-12T16:38:49.726Z,30.27
2023-03-12T16:41:22.824Z,28.80
2023-03-12T16:43:55.615Z,30.90
2023-03-12T16:46:33.271Z,30.67
2023-03-12T16:49:04.234Z,30.43
2023-03-12T16:51:34.086Z,30.07
2023-03-12T16:54:10.393Z,25.67
2023-03-12T16:56:46.380Z,25.73
2023-03-12T16:59:24.487Z,28.87
2023-03-12T17:01:54.524Z,24.63
2023-03-12T17:04:24.460Z,30.07
2023-03-12T17:06:54.278Z,23.00
2023-03-12T17:09:24.050Z,23.90
2023-03-12T17:11:56.849Z,25.20
2023-03-12T17:14:26.912Z,32.13
2023-03-12T17:16:57.356Z,28.47
2023-03-12T17:19:27.170Z,27.60
2023-03-12T17:21:57.340Z,26.73
2023-03-12T17:24:28.308Z,23.97
2023-03-12T17:27:00.856Z,30.17
2023-03-12T17:29:31.525Z,23.17
2023-03-12T17:32:01.437Z,26.03
2023-03-12T17:34:31.231Z,26.60
2023-03-12T17:37:01.754Z,28.80
2023-03-12T17:39:31.572Z,27.63
2023-03-12T17:42:04.011Z,25.77
2023-03-12T17:44:36.796Z,20.17
2023-03-12T17:47:09.643Z,26.43
2023-03-12T17:49:39.650Z,25.67
2023-03-12T17:52:09.502Z,21.80
2023-03-12T17:54:39.517Z,24.57
2023-03-12T17:57:11.893Z,23.03
2023-03-12T17:59:41.634Z,26.50
2023-03-12T18:02:13.556Z,35.37
2023-03-12T18:04:43.479Z,23.53
2023-03-12T18:07:14.072Z,30.13
2023-03-12T18:09:43.851Z,27.63
2023-03-12T18:12:16.236Z,29.37
2023-03-12T18:14:45.992Z,25.07
2023-03-12T18:17:15.833Z,26.40
2023-03-12T18:19:45.727Z,22.63
2023-03-12T18:22:15.972Z,27.23
2023-03-12T18:24:45.755Z,29.40
2023-03-12T18:27:18.122Z,28.03
2023-03-12T18:29:55.598Z,32.10
2023-03-12T18:32:25.459Z,32.70
2023-03-12T18:34:55.313Z,30.23
2023-03-12T18:37:25.242Z,30.30
2023-03-12T18:39:55.010Z,29.73
2023-03-12T18:42:27.364Z,27.43
2023-03-12T18:44:57.200Z,30.60
2023-03-12T18:47:26.950Z,26.97
2023-03-12T18:49:58.635Z,34.20
2023-03-12T18:52:28.464Z,30.63
2023-03-12T18:54:58.235Z,28.13
2023-03-12T18:57:30.670Z,27.17
2023-03-12T19:00:00.514Z,27.00
2023-03-12T19:02:34.859Z,30.50
2023-03-12T19:05:05.778Z,29.40
2023-03-12T19:07:38.536Z,25.07
2023-03-12T19:10:10.434Z,25.40
2023-03-12T19:12:52.125Z,30.47
2023-03-12T19:15:24.166Z,29.63
2023-03-12T19:17:54.471Z,27.77
2023-03-12T19:20:24.635Z,29.13
2023-03-12T19:22:55.194Z,28.37
2023-03-12T19:25:26.218Z,27.80
2023-03-12T19:27:58.687Z,24.67
2023-03-12T19:30:33.828Z,31.00
2023-03-12T19:33:09.226Z,27.97
2023-03-12T19:35:41.010Z,28.13
2023-03-12T19:38:12.216Z,36.20
2023-03-12T19:40:41.991Z,31.70
2023-03-12T19:43:14.403Z,28.90
2023-03-12T19:45:47.270Z,24.70
2023-03-12T19:48:20.015Z,30.63
2023-03-12T19:50:51.490Z,25.37
2023-03-12T19:53:24.655Z,34.00
2023-03-12T19:55:54.920Z,32.60
2023-03-12T19:58:27.332Z,31.97
2023-03-12T20:00:57.305Z,31.17
2023-03-12T20:03:27.172Z,40.50
2023-03-12T20:05:57.086Z,30.13
2023-03-12T20:08:28.024Z,34.80
2023-03-12T20:11:04.809Z,26.63
2023-03-12T20:13:38.133Z,27.63
2023-03-12T20:16:11.779Z,33.00
2023-03-12T20:18:42.015Z,35.67
2023-03-12T20:21:11.852Z,28.37
2023-03-12T20:23:41.638Z,30.87
2023-03-12T20:26:11.531Z,32.53
2023-03-12T20:28:44.791Z,36.37
2023-03-12T20:31:17.503Z,30.57
2023-03-12T20:33:47.468Z,33.27
2023-03-12T20:36:17.610Z,33.07
2023-03-12T20:38:50.506Z,31.47
2023-03-12T20:41:20.813Z,34.00
2023-03-12T20:43:58.328Z,32.17
2023-03-12T20:46:28.264Z,27.33
2023-03-12T20:48:58.254Z,28.60
2023-03-12T20:51:28.087Z,35.53
2023-03-12T20:53:57.846Z,30.47
2023-03-12T20:56:27.735Z,31.40
2023-03-12T20:59:00.153Z,31.90
2023-03-12T21:01:30.109Z,27.90
2023-03-12T21:04:00.744Z,27.57
2023-03-12T21:06:30.729Z,29.27
2023-03-12T21:09:01.207Z,33.63
2023-03-12T21:11:31.505Z,26.43
2023-03-12T21:14:03.881Z,20.50
2023-03-12T21:16:33.745Z,26.77
2023-03-12T21:19:03.571Z,33.77
2023-03-12T21:21:35.391Z,29.67
2023-03-12T21:24:05.175Z,26.87
2023-03-12T21:26:35.056Z,27.67
2023-03-12T21:29:08.996Z,27.13
2023-03-12T21:31:38.773Z,20.80
2023-03-12T21:34:09.645Z,24.93
2023-03-12T21:36:39.660Z,26.23
2023-03-12T21:39:09.457Z,28.43
2023-03-12T21:41:39.553Z,23.80
2023-03-12T21:44:12.529Z,26.93
2023-03-12T21:46:43.460Z,22.23
2023-03-12T21:49:14.221Z,21.20
2023-03-12T21:51:44.031Z,25.00
2023-03-12T21:54:14.181Z,20.93
2023-03-12T21:56:44.014Z,23.63
2023-03-12T21:59:16.420Z,18.43
2023-03-12T22:01:46.260Z,21.53
2023-03-12T22:04:16.147Z,23.03
2023-03-12T22:06:46.024Z,19.30
2023-03-12T22:09:15.824Z,19.97
2023-03-12T22:11:45.664Z,16.67
2023-03-12T22:14:18.054Z,20.23
2023-03-12T22:16:47.864Z,20.50
2023-03-12T22:19:19.295Z,24.33
2023-03-12T22:21:49.057Z,15.10
2023-03-12T22:24:18.826Z,21.50
2023-03-12T22:26:49.336Z,22.13
2023-03-12T22:29:21.784Z,17.93
2023-03-12T22:31:53.090Z,18.83
2023-03-12T22:34:22.857Z,19.23
2023-03-12T22:36:52.715Z,20.77
2023-03-12T22:39:22.489Z,17.47
2023-03-12T22:41:53.807Z,19.97
2023-03-12T22:44:26.172Z,14.63
2023-03-12T22:46:55.966Z,15.90
2023-03-12T22:49:25.796Z,18.73
2023-03-12T22:51:55.571Z,20.73
2023-03-12T22:54:25.336Z,20.23
2023-03-12T22:56:55.094Z,15.30
2023-03-12T22:59:27.515Z,23.47
2023-03-12T23:01:57.280Z,19.40
2023-03-12T23:04:27.289Z,18.23
2023-03-12T23:07:07.665Z,16.57
2023-03-12T23:09:43.318Z,16.67
2023-03-12T23:12:13.157Z,21.57
2023-03-12T23:14:45.533Z,16.53
2023-03-12T23:17:15.369Z,15.47
2023-03-12T23:19:45.574Z,17.27
2023-03-12T23:22:15.438Z,14.60
2023-03-12T23:24:45.186Z,18.70
2023-03-12T23:27:15.012Z,19.27
2023-03-12T23:29:47.386Z,16.17
2023-03-12T23:32:17.304Z,17.80
2023-03-12T23:34:47.088Z,14.47
2023-03-12T23:37:17.029Z,19.07
2023-03-12T23:39:54.492Z,15.63
2023-03-12T23:42:24.928Z,18.10
2023-03-12T23:44:57.284Z,18.83
2023-03-12T23:47:27.164Z,20.70
2023-03-12T23:49:56.920Z,21.97
2023-03-12T23:52:31.467Z,14.73
2023-03-12T23:55:01.216Z,13.93
2023-03-12T23:57:32.091Z,21.67
